Aviation Digital Data Service (ADDS)

Output produced by METARs form (1115 UTC 19 February 2019)
found at http://www.aviationweather.gov/metar/data/
 
Forecast for: MPTO (TOCUMEN , PA)
Text: TAF MPTO 191000Z 1912/2018 22004KT 9999 FEW017
Forecast period: 1200 to 1500 UTC 19 February 2019
Forecast type: FROM: standard forecast or significant change
Winds: from the SW (220 degrees) at 5 MPH (4 knots; 2.1 m/s)
Visibility: 6 or more miles 10+ km)
Ceiling: at least 12,000 feet AGL
Clouds: few clouds at 1700 feet AGL
Weather: no significant weather forecast for this period
Text: BECMG 1915/1918 36010KT SCT020
Forecast period: 1500 UTC 19 February 2019 to 1800 UTC 20 February 2019
Forecast type: BECOMING: Conditions expected to become as follows by 1800 UTC 19 February 2019
Winds: from the N (360 degrees) at 12 MPH (10 knots; 5.1 m/s)
Visibility: 6 or more miles 10+ km)
Ceiling: at least 12,000 feet AGL
Clouds: scattered clouds at 2000 feet AGL
Weather: no significant weather forecast for this period
Text: TEMPO 1918/1922 34016KT
Forecast period: 1800 to 2200 UTC 19 February 2019
Forecast type: TEMPORARY: The following changes expected for less than half the time period
Winds: from the NNW (340 degrees) at 18 MPH (16 knots; 8.2 m/s)
Visibility: missing
Ceiling: unknown
Clouds: missing
Weather: no significant weather forecast for this period